Time;durP1;ratioP1;P1;durP2;ratioP2;P2;SDS_P1;SDS_P2;PMS_P1;PMS_P2;Temp;Humidity;BMP_temperature;BMP_pressure;BME280_temperature;BME280_humidity;BME280_pressure;Samples;Min_cycle;Max_cycle;Signal;HPM_P1;HPM_P2
2021/12/06 00:01:19;;;;;;;71.75;42.85;;;;;;;;;;5018602;28;20389;-59
2021/12/06 00:04:07;;;;;;;67.55;38.72;;;;;;;;;;5020445;28;20053;-60
2021/12/06 00:06:33;;;;;;;56.70;37.55;;;;;;;;;;5011684;28;20072;-60
2021/12/06 00:08:59;;;;;;;61.05;37.33;;;;;;;;;;5021512;28;20013;-60
2021/12/06 00:11:24;;;;;;;60.30;38.10;;;;;;;;;;5019713;28;20521;-60
2021/12/06 00:13:49;;;;;;;59.60;38.33;;;;;;;;;;5019666;28;20021;-60
2021/12/06 00:16:20;;;;;;;61.47;43.60;;;;;;;;;;5020564;28;20500;-60
2021/12/06 00:18:46;;;;;;;66.88;40.25;;;;;;;;;;5020316;28;20103;-59
2021/12/06 00:21:11;;;;;;;60.75;40.78;;;;;;;;;;5020069;28;20493;-59
2021/12/06 00:23:37;;;;;;;84.65;45.33;;;;;;;;;;5019708;28;20013;-59
2021/12/06 00:26:02;;;;;;;73.00;48.67;;;;;;;;;;5018400;28;20041;-59
2021/12/06 00:28:27;;;;;;;84.10;49.55;;;;;;;;;;5019226;28;20069;-58
2021/12/06 00:30:53;;;;;;;78.90;49.17;;;;;;;;;;5018199;28;20388;-58
2021/12/06 00:33:19;;;;;;;83.13;48.83;;;;;;;;;;5020616;28;20472;-59
2021/12/06 00:35:44;;;;;;;97.83;53.37;;;;;;;;;;5018959;28;20481;-58
2021/12/06 00:38:09;;;;;;;86.20;49.88;;;;;;;;;;5019523;28;20479;-58
2021/12/06 00:40:47;;;;;;;83.22;50.60;;;;;;;;;;5019567;28;20119;-58
2021/12/06 00:43:12;;;;;;;82.20;49.03;;;;;;;;;;5021413;28;20075;-59
2021/12/06 00:45:38;;;;;;;89.93;53.05;;;;;;;;;;5017572;28;20448;-60
2021/12/06 00:48:03;;;;;;;76.05;49.30;;;;;;;;;;5020718;28;20428;-60
2021/12/06 00:50:30;;;;;;;94.55;51.78;;;;;;;;;;5017718;28;20570;-59
2021/12/06 00:52:55;;;;;;;88.10;52.20;;;;;;;;;;5019400;28;20022;-60
2021/12/06 00:55:21;;;;;;;95.77;50.17;;;;;;;;;;5017432;28;20037;-60
2021/12/06 00:57:47;;;;;;;90.30;52.38;;;;;;;;;;5021392;28;20433;-60
2021/12/06 01:00:17;;;;;;;88.10;49.15;;;;;;;;;;5017819;28;20543;-59
2021/12/06 01:02:42;;;;;;;97.32;55.20;;;;;;;;;;5020397;28;20439;-58
2021/12/06 01:05:08;;;;;;;99.95;54.42;;;;;;;;;;5020268;28;20041;-60
2021/12/06 01:07:33;;;;;;;124.38;60.45;;;;;;;;;;5018959;28;20377;-59
2021/12/06 01:09:58;;;;;;;106.53;56.80;;;;;;;;;;5019196;28;20113;-59
2021/12/06 01:12:23;;;;;;;109.25;56.08;;;;;;;;;;5020588;28;20097;-59
2021/12/06 01:14:49;;;;;;;106.88;59.95;;;;;;;;;;5015949;28;20096;-59
2021/12/06 01:17:14;;;;;;;107.88;58.80;;;;;;;;;;5019957;28;20026;-60
2021/12/06 01:19:39;;;;;;;104.80;55.97;;;;;;;;;;5019043;28;20033;-59
2021/12/06 01:25:02;;;;;;;106.45;58.40;;;;;;;;;;5019001;28;20145;-58
2021/12/06 01:28:12;;;;;;;109.43;59.33;;;;;;;;;;5021339;28;20089;-58
2021/12/06 01:30:47;;;;;;;107.68;58.28;;;;;;;;;;5017349;28;20816;-58
2021/12/06 01:41:27;;;;;;;103.20;54.75;;;;;;;;;;5019264;28;20033;-58
2021/12/06 01:44:06;;;;;;;114.57;57.63;;;;;;;;;;5019122;28;20022;-58
2021/12/06 01:46:32;;;;;;;118.45;61.63;;;;;;;;;;5023049;28;20041;-58
2021/12/06 01:48:57;;;;;;;126.30;62.13;;;;;;;;;;5022929;28;20018;-58
2021/12/06 01:51:22;;;;;;;128.65;62.80;;;;;;;;;;5021189;28;20056;-59
2021/12/06 01:53:48;;;;;;;115.30;58.87;;;;;;;;;;5024584;28;20434;-59
2021/12/06 01:56:13;;;;;;;107.00;57.03;;;;;;;;;;5038685;28;20459;-59
2021/12/06 01:58:38;;;;;;;93.57;53.87;;;;;;;;;;5042140;28;20432;-59
2021/12/06 02:01:03;;;;;;;108.95;57.13;;;;;;;;;;5041343;28;20022;-59
2021/12/06 02:03:28;;;;;;;105.82;53.67;;;;;;;;;;5044037;28;20024;-59
2021/12/06 02:05:54;;;;;;;110.80;55.53;;;;;;;;;;5039526;28;20038;-59
2021/12/06 02:08:19;;;;;;;110.97;55.73;;;;;;;;;;5043200;28;20009;-58
2021/12/06 02:10:44;;;;;;;110.85;55.40;;;;;;;;;;5041901;28;20818;-59
2021/12/06 02:13:10;;;;;;;101.97;56.38;;;;;;;;;;5041748;28;20009;-58
2021/12/06 02:15:55;;;;;;;114.85;57.03;;;;;;;;;;5041270;28;20033;-58
2021/12/06 02:19:01;;;;;;;127.78;60.75;;;;;;;;;;5042862;28;20032;-58
2021/12/06 02:21:28;;;;;;;115.53;59.05;;;;;;;;;;5038260;28;20045;-58
2021/12/06 02:23:53;;;;;;;118.50;57.10;;;;;;;;;;5043747;28;20554;-58
2021/12/06 02:26:19;;;;;;;123.07;58.17;;;;;;;;;;5040857;28;20187;-58
2021/12/06 02:28:44;;;;;;;118.45;53.67;;;;;;;;;;5041950;28;20384;-59
2021/12/06 02:31:10;;;;;;;115.83;56.87;;;;;;;;;;5041803;28;20037;-58
2021/12/06 02:33:35;;;;;;;126.45;60.88;;;;;;;;;;5042132;28;20447;-58
2021/12/06 02:36:00;;;;;;;143.13;63.67;;;;;;;;;;5039832;28;20041;-59
2021/12/06 02:38:25;;;;;;;130.63;59.22;;;;;;;;;;5041699;28;20082;-58
2021/12/06 02:40:51;;;;;;;129.23;63.47;;;;;;;;;;5041615;28;20033;-58
2021/12/06 02:43:16;;;;;;;150.07;60.83;;;;;;;;;;5041580;28;20019;-58
2021/12/06 02:45:42;;;;;;;127.23;59.67;;;;;;;;;;5041008;28;20481;-58
2021/12/06 02:48:08;;;;;;;129.00;59.60;;;;;;;;;;5041647;28;20515;-58
2021/12/06 02:50:36;;;;;;;119.22;55.50;;;;;;;;;;5040190;28;20852;-58
2021/12/06 02:53:01;;;;;;;113.30;56.97;;;;;;;;;;5042530;28;20049;-58
2021/12/06 02:57:58;;;;;;;98.87;44.50;;;;;;;;;;5040841;28;20068;-59
2021/12/06 03:00:24;;;;;;;135.90;56.80;;;;;;;;;;5040575;28;20037;-60
2021/12/06 03:02:49;;;;;;;122.03;55.50;;;;;;;;;;5040037;28;20037;-60
2021/12/06 03:05:14;;;;;;;120.80;57.03;;;;;;;;;;5040958;28;20033;-60
2021/12/06 03:07:39;;;;;;;138.75;59.88;;;;;;;;;;5040832;28;20423;-59
2021/12/06 03:10:06;;;;;;;126.70;52.30;;;;;;;;;;5040227;28;20124;-59
2021/12/06 03:12:31;;;;;;;155.02;62.60;;;;;;;;;;5042317;28;20017;-59
2021/12/06 03:14:57;;;;;;;142.38;60.33;;;;;;;;;;5039889;28;20056;-59
2021/12/06 03:17:23;;;;;;;145.93;59.92;;;;;;;;;;5041618;28;20101;-59
2021/12/06 03:19:49;;;;;;;153.48;65.43;;;;;;;;;;5039162;28;20076;-59
2021/12/06 03:22:15;;;;;;;162.40;65.82;;;;;;;;;;5042476;28;20073;-59
2021/12/06 03:24:40;;;;;;;146.73;62.05;;;;;;;;;;5034572;28;20042;-59
2021/12/06 03:27:06;;;;;;;160.73;65.95;;;;;;;;;;5019604;28;20033;-59
2021/12/06 03:29:32;;;;;;;139.15;58.10;;;;;;;;;;5021166;28;20030;-59
2021/12/06 03:31:57;;;;;;;121.45;52.50;;;;;;;;;;5020027;28;20488;-59
2021/12/06 03:34:26;;;;;;;158.23;56.85;;;;;;;;;;5019667;28;20060;-59
2021/12/06 03:36:51;;;;;;;;;;;;;;;;;;5022544;28;20075;-59
2021/12/06 03:39:20;;;;;;;164.98;61.50;;;;;;;;;;5020490;28;20011;-59
2021/12/06 03:41:47;;;;;;;191.85;66.07;;;;;;;;;;5021967;28;20073;-59
2021/12/06 03:44:12;;;;;;;169.07;62.97;;;;;;;;;;5018410;28;20097;-60
2021/12/06 03:46:37;;;;;;;186.52;69.68;;;;;;;;;;5021645;28;20088;-59
2021/12/06 03:49:13;;;;;;;150.98;57.10;;;;;;;;;;5021535;28;20026;-59
2021/12/06 03:51:39;;;;;;;164.60;65.78;;;;;;;;;;5019733;28;20505;-59
2021/12/06 03:54:04;;;;;;;164.50;69.10;;;;;;;;;;5021000;28;20028;-59
2021/12/06 03:56:30;;;;;;;200.30;72.13;;;;;;;;;;5017646;28;20064;-59
2021/12/06 03:58:55;;;;;;;210.05;72.03;;;;;;;;;;5020700;28;20461;-59
2021/12/06 04:01:20;;;;;;;182.82;67.10;;;;;;;;;;5019721;28;20033;-59
2021/12/06 04:03:47;;;;;;;181.27;68.10;;;;;;;;;;5021277;28;20474;-59
2021/12/06 04:06:12;;;;;;;161.85;60.47;;;;;;;;;;5018467;28;20575;-59
2021/12/06 04:08:38;;;;;;;171.65;74.00;;;;;;;;;;5020906;28;20053;-59
2021/12/06 04:11:03;;;;;;;200.80;73.47;;;;;;;;;;5019101;28;20121;-60
2021/12/06 04:13:28;;;;;;;195.40;72.57;;;;;;;;;;5020978;28;20026;-59
2021/12/06 04:15:54;;;;;;;202.48;75.95;;;;;;;;;;5018491;28;20022;-59
2021/12/06 04:18:19;;;;;;;206.25;72.50;;;;;;;;;;5021114;28;20013;-59
2021/12/06 04:20:45;;;;;;;213.95;71.13;;;;;;;;;;5017637;28;20038;-59
2021/12/06 04:23:10;;;;;;;220.98;78.40;;;;;;;;;;5020244;28;20048;-59
2021/12/06 04:25:37;;;;;;;190.82;72.55;;;;;;;;;;5030666;28;20034;-58
2021/12/06 04:28:06;;;;;;;195.90;77.65;;;;;;;;;;5040691;28;20092;-58
2021/12/06 04:30:31;;;;;;;174.52;70.30;;;;;;;;;;5039071;28;20064;-58
2021/12/06 04:32:56;;;;;;;179.90;72.50;;;;;;;;;;5039449;28;20017;-58
2021/12/06 04:35:22;;;;;;;197.45;72.65;;;;;;;;;;5038914;28;20060;-58
2021/12/06 04:37:47;;;;;;;178.65;67.65;;;;;;;;;;5041542;28;20056;-59
2021/12/06 04:40:12;;;;;;;176.63;68.63;;;;;;;;;;5037529;28;20527;-59
2021/12/06 04:42:39;;;;;;;161.15;65.25;;;;;;;;;;5039626;28;20445;-59
2021/12/06 04:45:04;;;;;;;163.05;68.25;;;;;;;;;;5038911;28;20033;-59
2021/12/06 04:47:30;;;;;;;154.18;66.97;;;;;;;;;;5040168;28;20070;-60
2021/12/06 04:49:55;;;;;;;147.55;63.20;;;;;;;;;;5037926;28;20394;-59
2021/12/06 04:52:20;;;;;;;138.35;58.80;;;;;;;;;;5040180;28;20017;-60
2021/12/06 04:54:48;;;;;;;159.82;61.28;;;;;;;;;;5039406;28;20044;-60
2021/12/06 04:57:18;;;;;;;155.48;62.17;;;;;;;;;;5038803;28;20018;-60
2021/12/06 04:59:45;;;;;;;154.98;71.00;;;;;;;;;;5038868;28;20028;-60
2021/12/06 05:02:12;;;;;;;147.23;61.80;;;;;;;;;;5041209;28;20468;-59
2021/12/06 05:04:41;;;;;;;119.07;53.63;;;;;;;;;;5037820;28;20030;-59
2021/12/06 05:07:10;;;;;;;138.50;56.97;;;;;;;;;;5039929;28;20025;-59
2021/12/06 05:09:36;;;;;;;137.23;59.67;;;;;;;;;;5037725;28;20036;-59
2021/12/06 05:12:02;;;;;;;101.75;53.17;;;;;;;;;;5039952;28;20026;-60
2021/12/06 05:14:27;;;;;;;131.43;57.08;;;;;;;;;;5045483;28;20037;-60
2021/12/06 05:16:53;;;;;;;133.35;53.97;;;;;;;;;;5039223;28;20043;-58
2021/12/06 05:19:19;;;;;;;98.95;45.30;;;;;;;;;;5038533;28;20064;-58
2021/12/06 05:21:44;;;;;;;99.07;47.80;;;;;;;;;;5043789;28;20032;-57
2021/12/06 05:24:09;;;;;;;103.20;50.08;;;;;;;;;;5043781;28;20997;-57
2021/12/06 05:26:35;;;;;;;117.67;50.27;;;;;;;;;;5043056;28;20025;-58
2021/12/06 05:29:02;;;;;;;103.13;49.45;;;;;;;;;;5043440;28;20451;-57
2021/12/06 05:31:28;;;;;;;117.82;53.00;;;;;;;;;;5042098;28;20033;-58
2021/12/06 05:33:59;;;;;;;109.85;53.47;;;;;;;;;;5044363;28;20062;-57
2021/12/06 05:36:24;;;;;;;108.68;50.75;;;;;;;;;;5041181;28;20500;-57
2021/12/06 05:38:50;;;;;;;103.13;51.60;;;;;;;;;;5043080;28;20013;-57
2021/12/06 05:41:16;;;;;;;104.95;51.42;;;;;;;;;;5042508;28;20443;-57
2021/12/06 05:43:41;;;;;;;108.72;48.60;;;;;;;;;;5042823;28;20377;-57
2021/12/06 05:46:06;;;;;;;105.90;49.57;;;;;;;;;;5042289;28;20500;-58
2021/12/06 05:48:31;;;;;;;94.27;47.37;;;;;;;;;;5043599;28;20502;-57
2021/12/06 05:50:56;;;;;;;98.33;52.40;;;;;;;;;;5040463;28;20558;-57
2021/12/06 05:53:22;;;;;;;94.90;48.13;;;;;;;;;;5044721;28;20416;-58
2021/12/06 05:55:47;;;;;;;100.63;47.95;;;;;;;;;;5041517;28;20459;-57
2021/12/06 05:58:13;;;;;;;96.00;46.35;;;;;;;;;;5044151;28;20479;-58
2021/12/06 06:00:39;;;;;;;90.68;47.67;;;;;;;;;;5042564;28;20036;-57
2021/12/06 06:03:05;;;;;;;101.18;46.58;;;;;;;;;;5042147;28;20021;-57
2021/12/06 06:05:31;;;;;;;88.95;47.53;;;;;;;;;;5040637;28;20123;-57
2021/12/06 06:07:56;;;;;;;90.28;47.60;;;;;;;;;;5043690;28;20140;-57
2021/12/06 06:10:21;;;;;;;94.88;44.35;;;;;;;;;;5039919;28;20073;-58
2021/12/06 06:12:46;;;;;;;94.23;46.00;;;;;;;;;;5044698;28;20032;-58
2021/12/06 06:15:12;;;;;;;99.20;47.80;;;;;;;;;;5051642;28;20439;-57
2021/12/06 06:17:42;;;;;;;97.00;46.97;;;;;;;;;;5053045;28;20431;-58
2021/12/06 06:20:13;;;;;;;95.15;44.38;;;;;;;;;;5051829;28;20492;-57
2021/12/06 06:22:39;;;;;;;111.00;51.75;;;;;;;;;;5053673;28;20075;-57
2021/12/06 06:25:04;;;;;;;104.05;52.40;;;;;;;;;;5051494;28;20060;-58
2021/12/06 06:27:29;;;;;;;119.97;49.05;;;;;;;;;;5052483;28;20025;-58
2021/12/06 06:29:55;;;;;;;101.75;49.70;;;;;;;;;;5051107;28;20400;-57
2021/12/06 06:32:20;;;;;;;101.80;47.63;;;;;;;;;;5052654;28;20100;-57
2021/12/06 06:34:45;;;;;;;109.43;47.43;;;;;;;;;;5051534;28;20447;-57
2021/12/06 06:37:10;;;;;;;113.50;52.28;;;;;;;;;;5052751;28;20431;-57
2021/12/06 06:39:35;;;;;;;114.38;50.17;;;;;;;;;;5050881;28;20033;-57
2021/12/06 06:42:01;;;;;;;108.15;45.78;;;;;;;;;;5052976;28;20453;-57
2021/12/06 06:44:26;;;;;;;115.18;50.20;;;;;;;;;;5051169;28;20037;-58
2021/12/06 06:46:52;;;;;;;108.60;49.77;;;;;;;;;;5052500;28;20025;-58
2021/12/06 06:49:17;;;;;;;122.03;50.58;;;;;;;;;;5051042;28;20017;-57
2021/12/06 06:51:43;;;;;;;115.28;47.22;;;;;;;;;;5052497;28;20029;-57
2021/12/06 06:54:08;;;;;;;123.78;51.60;;;;;;;;;;5051255;28;20040;-57
2021/12/06 06:56:34;;;;;;;106.25;46.67;;;;;;;;;;5052311;28;20560;-58
2021/12/06 06:58:59;;;;;;;112.90;45.17;;;;;;;;;;5052557;28;20017;-58
2021/12/06 07:01:24;;;;;;;117.50;46.70;;;;;;;;;;5050531;28;20550;-57
2021/12/06 07:03:53;;;;;;;116.18;44.67;;;;;;;;;;5052791;28;20013;-57
2021/12/06 07:06:18;;;;;;;;;;;;;;;;;;5051425;28;20033;-58
2021/12/06 07:08:43;;;;;;;108.28;44.55;;;;;;;;;;5052068;28;19955;-57
2021/12/06 07:11:09;;;;;;;114.00;44.87;;;;;;;;;;5050753;28;20033;-57
2021/12/06 07:13:38;;;;;;;109.97;47.85;;;;;;;;;;5052455;28;20774;-57
2021/12/06 07:16:03;;;;;;;100.63;42.80;;;;;;;;;;5050535;28;20037;-57
2021/12/06 07:18:28;;;;;;;101.07;43.80;;;;;;;;;;5052072;28;20028;-57
2021/12/06 07:20:54;;;;;;;99.57;43.72;;;;;;;;;;5050587;28;20484;-57
2021/12/06 07:23:19;;;;;;;110.85;42.58;;;;;;;;;;5051440;28;20025;-57
2021/12/06 07:25:44;;;;;;;100.50;45.33;;;;;;;;;;5050715;28;20047;-57
2021/12/06 07:28:09;;;;;;;112.50;45.38;;;;;;;;;;5052306;28;20423;-58
2021/12/06 07:30:35;;;;;;;113.18;47.80;;;;;;;;;;5050135;28;20486;-57
2021/12/06 07:33:00;;;;;;;143.80;48.58;;;;;;;;;;5051850;28;20021;-57
2021/12/06 07:35:26;;;;;;;122.80;51.97;;;;;;;;;;5050179;28;20033;-57
2021/12/06 07:37:51;;;;;;;150.90;49.40;;;;;;;;;;5051758;28;20489;-57
2021/12/06 07:40:17;;;;;;;118.45;48.83;;;;;;;;;;5050235;28;20184;-57
2021/12/06 07:42:42;;;;;;;143.63;51.85;;;;;;;;;;5050823;28;20037;-57
2021/12/06 07:45:08;;;;;;;115.45;46.53;;;;;;;;;;5049828;28;20119;-57
2021/12/06 07:47:37;;;;;;;122.97;51.70;;;;;;;;;;5051378;28;20108;-57
2021/12/06 07:50:03;;;;;;;117.80;48.28;;;;;;;;;;5050092;28;20126;-57
2021/12/06 07:52:28;;;;;;;91.90;43.25;;;;;;;;;;5051177;28;20101;-58
2021/12/06 07:54:58;;;;;;;110.80;44.57;;;;;;;;;;5050580;28;20484;-57
2021/12/06 07:57:23;;;;;;;94.75;43.08;;;;;;;;;;5051233;28;20480;-57
2021/12/06 07:59:48;;;;;;;87.07;41.15;;;;;;;;;;5049867;28;20045;-58
2021/12/06 08:02:15;;;;;;;89.17;39.90;;;;;;;;;;5051412;28;20358;-57
2021/12/06 08:04:40;;;;;;;87.68;42.15;;;;;;;;;;5050012;28;20562;-58
2021/12/06 08:07:05;;;;;;;114.83;43.17;;;;;;;;;;5051426;28;20029;-57
2021/12/06 08:09:30;;;;;;;103.85;41.80;;;;;;;;;;5049226;28;20447;-57
2021/12/06 08:11:55;;;;;;;72.57;36.73;;;;;;;;;;5051191;28;20036;-57
2021/12/06 08:14:20;;;;;;;100.40;41.65;;;;;;;;;;5049960;28;20833;-57
2021/12/06 08:16:46;;;;;;;89.77;43.63;;;;;;;;;;5051126;28;20029;-57
2021/12/06 08:19:11;;;;;;;88.28;40.05;;;;;;;;;;5049740;28;20466;-57
2021/12/06 08:21:37;;;;;;;100.60;46.83;;;;;;;;;;5051078;28;20549;-57
2021/12/06 08:24:03;;;;;;;100.88;43.60;;;;;;;;;;5050689;28;20044;-57
2021/12/06 08:26:30;;;;;;;95.50;44.00;;;;;;;;;;5049458;28;20123;-57
2021/12/06 08:28:56;;;;;;;103.28;43.30;;;;;;;;;;5051050;28;20552;-57
2021/12/06 08:31:22;;;;;;;87.70;40.10;;;;;;;;;;5048864;28;20116;-58
2021/12/06 08:33:51;;;;;;;96.90;46.58;;;;;;;;;;5051109;28;20460;-57
2021/12/06 08:36:17;;;;;;;108.28;42.58;;;;;;;;;;5049439;28;20124;-57
2021/12/06 08:38:43;;;;;;;95.63;41.92;;;;;;;;;;5050635;28;20021;-57
2021/12/06 08:41:10;;;;;;;89.72;44.67;;;;;;;;;;5049726;28;20095;-57
2021/12/06 08:43:36;;;;;;;91.18;41.38;;;;;;;;;;5050820;28;20033;-57
2021/12/06 08:46:04;;;;;;;95.80;43.45;;;;;;;;;;5049169;28;20029;-58
2021/12/06 08:48:31;;;;;;;101.55;45.53;;;;;;;;;;5050779;28;20112;-57
2021/12/06 08:50:58;;;;;;;87.40;39.88;;;;;;;;;;5049137;28;20048;-57
2021/12/06 08:53:23;;;;;;;87.43;37.65;;;;;;;;;;5051362;28;20052;-57
2021/12/06 08:55:48;;;;;;;83.32;38.63;;;;;;;;;;5053662;28;20060;-57
2021/12/06 08:58:14;;;;;;;91.28;39.63;;;;;;;;;;5054727;28;20377;-57
2021/12/06 09:00:39;;;;;;;83.65;43.20;;;;;;;;;;5052934;28;20037;-57
2021/12/06 09:03:04;;;;;;;84.38;42.95;;;;;;;;;;5054860;28;20043;-57
2021/12/06 09:05:32;;;;;;;85.00;43.75;;;;;;;;;;5052956;28;20040;-57
2021/12/06 09:07:57;;;;;;;92.15;40.72;;;;;;;;;;5054379;28;20021;-57
2021/12/06 09:10:22;;;;;;;91.45;49.35;;;;;;;;;;5053149;28;20463;-57
2021/12/06 09:12:48;;;;;;;80.65;43.90;;;;;;;;;;5054385;28;20053;-57
2021/12/06 09:15:15;;;;;;;87.47;38.65;;;;;;;;;;5052646;28;20021;-57
2021/12/06 09:17:40;;;;;;;75.68;41.13;;;;;;;;;;5054935;28;20021;-57
2021/12/06 09:20:06;;;;;;;81.28;40.33;;;;;;;;;;5045931;28;20120;-57
2021/12/06 09:22:32;;;;;;;80.03;44.45;;;;;;;;;;5053422;28;20040;-57
2021/12/06 09:24:57;;;;;;;83.03;42.00;;;;;;;;;;5051221;28;20067;-56
2021/12/06 09:27:23;;;;;;;76.05;40.75;;;;;;;;;;5053263;28;20024;-58
2021/12/06 09:29:48;;;;;;;76.00;41.70;;;;;;;;;;5054032;28;20028;-57
2021/12/06 09:32:13;;;;;;;83.82;40.55;;;;;;;;;;5052577;28;20029;-57
2021/12/06 09:34:41;;;;;;;73.47;40.95;;;;;;;;;;5053595;28;20143;-57
2021/12/06 09:37:06;;;;;;;64.35;36.45;;;;;;;;;;5052261;28;20113;-57
2021/12/06 09:39:32;;;;;;;76.95;41.42;;;;;;;;;;5053761;28;20104;-57
2021/12/06 09:41:58;;;;;;;70.40;35.72;;;;;;;;;;5052517;28;20033;-57
2021/12/06 09:44:23;;;;;;;78.40;34.25;;;;;;;;;;5053131;28;20376;-57
2021/12/06 09:46:49;;;;;;;68.20;38.45;;;;;;;;;;5051601;28;20507;-57
2021/12/06 09:49:16;;;;;;;56.85;34.45;;;;;;;;;;5052109;28;20029;-57
2021/12/06 09:51:43;;;;;;;67.90;36.42;;;;;;;;;;5051805;28;20048;-57
2021/12/06 09:54:09;;;;;;;66.82;33.88;;;;;;;;;;5054019;28;20032;-57
2021/12/06 09:56:37;;;;;;;68.75;34.30;;;;;;;;;;5052144;28;20040;-57
2021/12/06 09:59:05;;;;;;;72.28;40.42;;;;;;;;;;5052876;28;20060;-57
2021/12/06 10:01:32;;;;;;;63.93;36.37;;;;;;;;;;5051879;28;20506;-57
2021/12/06 10:03:58;;;;;;;59.38;39.38;;;;;;;;;;5053545;28;20070;-57
2021/12/06 10:06:26;;;;;;;73.20;40.50;;;;;;;;;;5050668;28;20033;-57
2021/12/06 10:08:51;;;;;;;59.47;35.13;;;;;;;;;;5053737;28;20040;-57
2021/12/06 10:11:17;;;;;;;71.28;36.50;;;;;;;;;;5051836;28;20480;-57
2021/12/06 10:13:43;;;;;;;67.72;37.47;;;;;;;;;;5053009;28;20017;-58
2021/12/06 10:16:08;;;;;;;62.95;33.15;;;;;;;;;;5052044;28;20496;-57
2021/12/06 10:18:34;;;;;;;62.03;38.53;;;;;;;;;;5053280;28;20078;-57
2021/12/06 10:21:00;;;;;;;68.35;40.33;;;;;;;;;;5051507;28;20488;-57
2021/12/06 10:23:25;;;;;;;69.32;36.30;;;;;;;;;;5053109;28;20025;-57
2021/12/06 10:25:56;;;;;;;61.50;38.25;;;;;;;;;;5051641;28;20499;-57
2021/12/06 10:28:23;;;;;;;69.65;38.35;;;;;;;;;;5052629;28;20021;-57
2021/12/06 10:30:50;;;;;;;70.10;37.05;;;;;;;;;;5046156;28;20087;-57
2021/12/06 10:33:22;;;;;;;66.55;37.50;;;;;;;;;;5051418;28;20021;-57
2021/12/06 10:35:49;;;;;;;69.05;37.95;;;;;;;;;;5051090;28;20033;-57
2021/12/06 10:38:18;;;;;;;67.95;40.85;;;;;;;;;;5052952;28;20025;-57
2021/12/06 10:40:44;;;;;;;73.75;40.47;;;;;;;;;;5051433;28;20454;-57
2021/12/06 10:43:10;;;;;;;75.00;42.50;;;;;;;;;;5052412;28;20029;-57
2021/12/06 10:45:38;;;;;;;66.70;39.80;;;;;;;;;;5051101;28;20399;-57
2021/12/06 10:48:09;;;;;;;70.47;42.13;;;;;;;;;;5051787;28;20043;-58
2021/12/06 10:50:35;;;;;;;65.28;40.22;;;;;;;;;;5030716;28;20943;-57
2021/12/06 10:53:01;;;;;;;65.88;38.70;;;;;;;;;;5032576;28;20052;-57
2021/12/06 10:55:28;;;;;;;83.90;45.35;;;;;;;;;;5031248;28;20037;-57
2021/12/06 10:57:56;;;;;;;71.20;43.83;;;;;;;;;;5032451;28;20026;-57
2021/12/06 11:00:27;;;;;;;76.82;45.15;;;;;;;;;;5030760;28;20033;-57
2021/12/06 11:02:52;;;;;;;74.32;44.22;;;;;;;;;;5032868;28;20507;-57
2021/12/06 11:05:22;;;;;;;90.05;50.15;;;;;;;;;;5032784;28;20041;-58
2021/12/06 11:07:47;;;;;;;69.13;42.88;;;;;;;;;;5047862;28;20028;-57
2021/12/06 11:10:12;;;;;;;84.15;46.33;;;;;;;;;;5042625;28;20047;-57
2021/12/06 11:12:37;;;;;;;77.38;45.78;;;;;;;;;;5034490;28;20085;-57
2021/12/06 11:15:11;;;;;;;87.78;51.85;;;;;;;;;;5046801;28;20057;-57
2021/12/06 11:17:37;;;;;;;92.78;54.05;;;;;;;;;;5037656;28;20025;-57
2021/12/06 11:20:03;;;;;;;83.97;51.35;;;;;;;;;;5033964;28;20639;-57
2021/12/06 11:22:29;;;;;;;103.95;55.97;;;;;;;;;;5031789;28;20116;-58
2021/12/06 11:24:56;;;;;;;93.38;55.22;;;;;;;;;;5034501;28;20042;-57
2021/12/06 11:27:29;;;;;;;97.93;59.35;;;;;;;;;;5037155;28;20052;-57
2021/12/06 11:29:57;;;;;;;106.13;58.53;;;;;;;;;;5041409;28;20052;-57
2021/12/06 11:32:27;;;;;;;97.53;56.92;;;;;;;;;;5051816;28;20021;-57
2021/12/06 11:34:56;;;;;;;95.85;56.70;;;;;;;;;;5034053;28;20037;-57
2021/12/06 11:37:27;;;;;;;108.00;59.70;;;;;;;;;;5031599;28;20061;-57
2021/12/06 11:40:11;;;;;;;110.60;65.32;;;;;;;;;;5030345;28;20048;-57
2021/12/06 11:42:46;;;;;;;100.13;61.55;;;;;;;;;;5031436;28;20384;-57
2021/12/06 11:45:11;;;;;;;91.13;53.95;;;;;;;;;;5039084;28;20041;-57
2021/12/06 11:47:36;;;;;;;91.88;56.92;;;;;;;;;;5050293;28;20096;-57
2021/12/06 11:50:02;;;;;;;86.30;54.83;;;;;;;;;;5049757;28;20558;-57
2021/12/06 11:52:31;;;;;;;91.10;56.90;;;;;;;;;;5051452;28;20048;-57
2021/12/06 11:55:01;;;;;;;99.53;57.35;;;;;;;;;;5050199;28;20087;-57
2021/12/06 11:57:28;;;;;;;98.43;57.25;;;;;;;;;;5051015;28;20021;-57
2021/12/06 11:59:55;;;;;;;123.30;66.00;;;;;;;;;;5049884;28;20151;-57
2021/12/06 12:02:36;;;;;;;112.50;64.50;;;;;;;;;;5051554;28;20021;-57
2021/12/06 12:05:18;;;;;;;105.65;63.22;;;;;;;;;;5049734;28;20124;-57
2021/12/06 12:08:00;;;;;;;101.57;57.92;;;;;;;;;;5051311;28;20427;-57
2021/12/06 12:10:26;;;;;;;95.60;58.45;;;;;;;;;;5049342;28;20048;-57
2021/12/06 12:12:52;;;;;;;89.15;53.90;;;;;;;;;;5050771;28;20028;-57
2021/12/06 12:15:17;;;;;;;98.47;55.80;;;;;;;;;;5049447;28;20404;-57
2021/12/06 12:17:46;;;;;;;106.33;60.43;;;;;;;;;;5051237;28;20020;-57
2021/12/06 12:20:11;;;;;;;99.47;54.70;;;;;;;;;;5049557;28;20464;-57
2021/12/06 12:22:38;;;;;;;97.25;58.05;;;;;;;;;;5050957;28;21000;-57
2021/12/06 12:25:09;;;;;;;98.78;56.92;;;;;;;;;;5049658;28;20063;-57
2021/12/06 12:27:46;;;;;;;84.40;52.13;;;;;;;;;;5050180;28;20029;-57
2021/12/06 12:30:12;;;;;;;99.00;58.65;;;;;;;;;;5049849;28;20033;-57
2021/12/06 12:32:37;;;;;;;95.28;54.42;;;;;;;;;;5050763;28;20036;-57
2021/12/06 12:35:05;;;;;;;95.03;57.37;;;;;;;;;;5049401;28;20055;-57
2021/12/06 12:37:32;;;;;;;90.40;50.22;;;;;;;;;;5051091;28;20434;-57
2021/12/06 12:39:59;;;;;;;84.50;52.88;;;;;;;;;;5049247;28;20041;-57
2021/12/06 12:42:24;;;;;;;80.80;46.42;;;;;;;;;;5050437;28;20464;-57
2021/12/06 12:44:51;;;;;;;93.50;54.10;;;;;;;;;;5044018;28;20033;-57
2021/12/06 12:47:18;;;;;;;80.15;53.15;;;;;;;;;;5041374;28;20467;-57
2021/12/06 12:49:44;;;;;;;85.65;54.15;;;;;;;;;;5040322;28;20044;-57
2021/12/06 12:52:09;;;;;;;84.38;51.08;;;;;;;;;;5050348;28;20036;-57
2021/12/06 12:54:35;;;;;;;98.83;57.77;;;;;;;;;;5048833;28;20033;-58
2021/12/06 12:57:04;;;;;;;85.77;50.40;;;;;;;;;;5050809;28;20420;-57
2021/12/06 12:59:29;;;;;;;94.95;57.63;;;;;;;;;;5048876;28;20025;-57
2021/12/06 13:02:14;;;;;;;81.90;51.57;;;;;;;;;;5049216;28;20496;-58
2021/12/06 13:04:57;;;;;;;82.10;48.08;;;;;;;;;;5038753;28;20456;-58
2021/12/06 13:07:25;;;;;;;74.18;43.70;;;;;;;;;;5049114;28;20570;-58
2021/12/06 13:09:51;;;;;;;72.13;44.00;;;;;;;;;;5048844;28;20102;-57
2021/12/06 13:12:17;;;;;;;70.60;44.03;;;;;;;;;;5049664;28;20989;-57
2021/12/06 13:14:47;;;;;;;76.10;43.03;;;;;;;;;;5049359;28;20071;-57
2021/12/06 13:17:23;;;;;;;90.57;52.60;;;;;;;;;;5050083;28;20021;-57
2021/12/06 13:19:55;;;;;;;94.38;53.22;;;;;;;;;;5048780;28;20447;-57
2021/12/06 13:22:30;;;;;;;90.20;52.25;;;;;;;;;;5050413;28;20017;-58
2021/12/06 13:25:00;;;;;;;85.63;49.20;;;;;;;;;;5049343;28;20036;-57
2021/12/06 13:27:31;;;;;;;82.40;49.80;;;;;;;;;;5049958;28;20031;-57
2021/12/06 13:30:03;;;;;;;77.25;46.35;;;;;;;;;;5049337;28;20052;-58
2021/12/06 13:32:30;;;;;;;105.97;57.13;;;;;;;;;;5050207;28;20604;-57
2021/12/06 13:34:56;;;;;;;101.57;54.08;;;;;;;;;;5048842;28;20032;-58
2021/12/06 13:37:25;;;;;;;107.90;61.45;;;;;;;;;;5050406;28;20025;-57
2021/12/06 13:39:50;;;;;;;109.00;61.67;;;;;;;;;;5050736;28;20071;-57
2021/12/06 13:42:36;;;;;;;123.90;60.47;;;;;;;;;;5053442;28;20418;-57
2021/12/06 13:45:04;;;;;;;102.60;57.05;;;;;;;;;;5052137;28;21013;-57
2021/12/06 13:47:30;;;;;;;121.50;64.30;;;;;;;;;;5053745;28;20615;-57
2021/12/06 13:49:55;;;;;;;101.57;60.53;;;;;;;;;;5052194;28;20048;-57
2021/12/06 13:52:39;;;;;;;108.68;63.85;;;;;;;;;;5053284;28;20137;-57
2021/12/06 13:55:16;;;;;;;97.13;54.05;;;;;;;;;;5052326;28;20037;-58
2021/12/06 13:57:43;;;;;;;111.60;61.63;;;;;;;;;;5054067;28;20028;-57
2021/12/06 14:00:11;;;;;;;119.03;61.70;;;;;;;;;;5052236;28;20234;-57
2021/12/06 14:02:36;;;;;;;109.67;57.77;;;;;;;;;;5053374;28;20466;-57
2021/12/06 14:05:02;;;;;;;107.25;59.58;;;;;;;;;;5052047;28;20057;-57
2021/12/06 14:07:28;;;;;;;115.07;64.35;;;;;;;;;;5053784;28;20025;-57
2021/12/06 14:09:55;;;;;;;135.50;65.28;;;;;;;;;;5049500;28;20052;-57
2021/12/06 14:12:22;;;;;;;123.78;66.30;;;;;;;;;;5052152;28;20025;-57
2021/12/06 14:14:51;;;;;;;117.68;60.60;;;;;;;;;;5052278;28;20103;-57
2021/12/06 14:17:17;;;;;;;109.60;56.10;;;;;;;;;;5053194;28;20032;-57
2021/12/06 14:19:43;;;;;;;123.82;62.55;;;;;;;;;;5051560;28;20037;-57
2021/12/06 14:22:09;;;;;;;122.10;60.88;;;;;;;;;;5053541;28;20025;-57
2021/12/06 14:24:35;;;;;;;120.15;62.10;;;;;;;;;;5051848;28;20376;-57